createdAt,value
2022-11-01T00:01:45.865Z,16.37
2022-11-01T00:03:43.515Z,16.37
2022-11-01T00:05:43.231Z,16.37
2022-11-01T00:07:42.980Z,16.37
2022-11-01T00:09:43.181Z,16.37
2022-11-01T00:11:43.952Z,16.37
2022-11-01T00:13:42.962Z,16.37
2022-11-01T00:15:43.494Z,16.37
2022-11-01T00:17:43.783Z,16.37
2022-11-01T00:19:42.720Z,16.37
2022-11-01T00:21:42.717Z,16.37
2022-11-01T00:23:43.660Z,16.37
2022-11-01T00:25:43.527Z,16.37
2022-11-01T00:27:43.040Z,16.37
2022-11-01T00:29:43.671Z,16.37
2022-11-01T00:31:46.633Z,16.37
2022-11-01T00:33:43.145Z,16.37
2022-11-01T00:35:43.179Z,16.37
2022-11-01T00:37:42.564Z,16.37
2022-11-01T00:39:43.330Z,16.37
2022-11-01T00:41:43.276Z,16.37
2022-11-01T00:43:43.549Z,16.37
2022-11-01T00:45:42.504Z,16.37
2022-11-01T00:47:42.806Z,16.37
2022-11-01T00:49:43.533Z,16.37
2022-11-01T00:51:43.353Z,16.37
2022-11-01T00:53:42.848Z,16.37
2022-11-01T00:55:42.789Z,16.37
2022-11-01T00:57:43.364Z,16.37
2022-11-01T00:59:43.726Z,16.37
2022-11-01T01:01:47.349Z,16.37
2022-11-01T01:03:44.820Z,16.37
2022-11-01T01:05:43.394Z,16.37
2022-11-01T01:07:43.486Z,16.37
2022-11-01T01:09:42.708Z,16.37
2022-11-01T01:11:43.480Z,16.37
2022-11-01T01:13:43.215Z,16.37
2022-11-01T01:15:50.134Z,16.37
2022-11-01T01:17:45.241Z,16.37
2022-11-01T01:19:43.856Z,16.37
2022-11-01T01:21:43.345Z,16.37
2022-11-01T01:23:42.580Z,16.37
2022-11-01T01:25:43.589Z,16.37
2022-11-01T01:27:43.018Z,16.37
2022-11-01T01:29:52.308Z,16.37
2022-11-01T01:31:42.949Z,16.37
2022-11-01T01:33:43.380Z,16.37
2022-11-01T01:35:43.324Z,16.37
2022-11-01T01:37:42.683Z,16.37
2022-11-01T01:39:43.568Z,16.37
2022-11-01T01:41:43.221Z,16.37
2022-11-01T01:43:42.706Z,16.37
2022-11-01T01:45:43.086Z,16.37
2022-11-01T01:47:42.491Z,16.37
2022-11-01T01:49:44.187Z,16.37
2022-11-01T01:51:42.800Z,16.37
2022-11-01T01:53:43.669Z,16.37
2022-11-01T01:55:43.116Z,16.37
2022-11-01T01:57:42.819Z,16.37
2022-11-01T01:59:43.097Z,16.37
2022-11-01T02:01:46.816Z,16.37
2022-11-01T02:03:43.449Z,16.37
2022-11-01T02:05:42.696Z,16.37
2022-11-01T02:07:43.043Z,16.37
2022-11-01T02:09:43.432Z,16.37
2022-11-01T02:11:42.588Z,16.37
2022-11-01T02:13:43.363Z,16.37
2022-11-01T02:15:43.034Z,16.37
2022-11-01T02:17:43.494Z,16.37
2022-11-01T02:19:43.898Z,16.37
2022-11-01T02:21:43.067Z,16.37
2022-11-01T02:23:43.420Z,16.37
2022-11-01T02:25:42.979Z,16.37
2022-11-01T02:27:42.960Z,16.37
2022-11-01T02:29:48.351Z,16.37
2022-11-01T02:31:43.571Z,16.37
2022-11-01T02:33:43.056Z,16.37
2022-11-01T02:35:42.869Z,16.37
2022-11-01T02:37:43.479Z,16.37
2022-11-01T02:39:43.042Z,16.37
2022-11-01T02:41:43.184Z,16.37
2022-11-01T02:43:42.590Z,16.37
2022-11-01T02:45:43.255Z,16.37
2022-11-01T02:47:42.651Z,16.37
2022-11-01T02:49:43.011Z,16.37
2022-11-01T02:51:43.634Z,16.37
2022-11-01T02:53:43.894Z,16.37
2022-11-01T02:57:43.043Z,16.37
2022-11-01T02:59:43.754Z,16.37
2022-11-01T03:01:43.570Z,16.37
2022-11-01T03:03:43.065Z,16.37
2022-11-01T03:05:42.685Z,16.37
2022-11-01T03:07:43.120Z,16.37
2022-11-01T03:09:43.348Z,16.37
2022-11-01T03:11:43.262Z,16.37
2022-11-01T03:13:42.841Z,16.37
2022-11-01T03:15:42.726Z,16.37
2022-11-01T03:17:43.268Z,16.37
2022-11-01T03:19:43.143Z,16.37
2022-11-01T03:21:43.193Z,16.37
2022-11-01T03:23:42.865Z,16.37
2022-11-01T03:25:43.093Z,16.37
2022-11-01T03:27:43.427Z,16.37
2022-11-01T03:29:42.722Z,16.37
2022-11-01T03:31:43.172Z,16.37
2022-11-01T03:33:42.992Z,16.37
2022-11-01T03:35:42.973Z,16.37
2022-11-01T03:37:45.181Z,16.37
2022-11-01T03:39:43.175Z,16.37
2022-11-01T03:41:43.174Z,16.37
2022-11-01T03:43:43.189Z,16.37
2022-11-01T03:45:43.407Z,16.37
2022-11-01T03:47:43.414Z,16.37
2022-11-01T03:49:43.701Z,16.37
2022-11-01T03:51:43.246Z,16.37
2022-11-01T03:53:43.156Z,16.37
2022-11-01T03:55:43.533Z,16.37
2022-11-01T03:57:43.507Z,16.37
2022-11-01T03:59:43.937Z,16.37
2022-11-01T04:01:46.612Z,16.37
2022-11-01T04:03:44.005Z,16.37
2022-11-01T04:05:43.209Z,16.37
2022-11-01T04:07:42.543Z,16.37
2022-11-01T04:09:43.201Z,16.37
2022-11-01T04:11:43.469Z,16.37
2022-11-01T04:13:42.618Z,16.37
2022-11-01T04:15:42.552Z,16.37
2022-11-01T04:17:43.085Z,16.37
2022-11-01T04:19:42.657Z,16.37
2022-11-01T04:21:42.893Z,16.37
2022-11-01T04:23:43.869Z,16.37
2022-11-01T04:25:43.276Z,16.37
2022-11-01T04:27:42.636Z,16.37
2022-11-01T04:29:43.371Z,16.37
2022-11-01T04:31:42.980Z,16.37
2022-11-01T04:33:43.254Z,16.37
2022-11-01T04:35:42.767Z,16.37
2022-11-01T04:37:42.765Z,16.37
2022-11-01T04:39:43.799Z,16.37
2022-11-01T04:41:43.540Z,16.37
2022-11-01T04:43:43.252Z,16.37
2022-11-01T04:45:42.812Z,16.37
2022-11-01T04:47:43.325Z,16.37
2022-11-01T04:49:43.376Z,16.37
2022-11-01T04:51:43.625Z,16.37
2022-11-01T04:53:43.257Z,16.37
2022-11-01T04:55:43.191Z,16.37
2022-11-01T04:57:42.876Z,16.37
2022-11-01T04:59:43.247Z,16.37
2022-11-01T05:01:46.895Z,16.37
2022-11-01T05:03:43.192Z,16.37
2022-11-01T05:05:43.027Z,16.37
2022-11-01T05:07:43.346Z,16.37
2022-11-01T05:09:43.039Z,16.37
2022-11-01T05:11:42.584Z,16.37
2022-11-01T05:13:42.549Z,16.37
2022-11-01T05:15:53.588Z,16.37
2022-11-01T05:18:01.282Z,16.37
2022-11-01T05:19:42.886Z,16.37
2022-11-01T05:21:42.961Z,16.37
2022-11-01T05:23:43.530Z,16.37
2022-11-01T05:25:48.351Z,16.37
2022-11-01T05:27:43.448Z,16.37
2022-11-01T05:30:05.143Z,16.37
2022-11-01T05:31:43.487Z,16.37
2022-11-01T05:33:42.957Z,16.37
2022-11-01T05:35:43.491Z,16.37
2022-11-01T05:37:49.636Z,16.37
2022-11-01T05:39:43.396Z,16.37
2022-11-01T05:41:43.734Z,16.37
2022-11-01T05:43:45.103Z,16.37
2022-11-01T05:45:43.416Z,16.37
2022-11-01T05:47:47.112Z,16.37
2022-11-01T05:49:42.927Z,16.37
2022-11-01T05:51:43.392Z,16.37
2022-11-01T05:53:42.816Z,16.37
2022-11-01T05:55:42.560Z,16.37
2022-11-01T05:57:45.110Z,16.37
2022-11-01T05:59:49.508Z,16.37
2022-11-01T06:01:47.456Z,16.37
2022-11-01T06:03:44.514Z,16.37
2022-11-01T06:05:47.744Z,16.37
2022-11-01T06:07:42.950Z,16.37
2022-11-01T06:09:43.045Z,16.37
2022-11-01T06:11:43.381Z,16.37
2022-11-01T06:13:43.136Z,16.37
2022-11-01T06:15:48.532Z,16.37
2022-11-01T06:17:42.924Z,16.37
2022-11-01T06:19:43.936Z,16.37
2022-11-01T06:21:43.472Z,16.37
2022-11-01T06:23:43.782Z,16.37
2022-11-01T06:25:43.343Z,16.37
2022-11-01T06:27:46.545Z,16.37
2022-11-01T06:29:43.958Z,16.37
2022-11-01T06:31:43.020Z,16.37
2022-11-01T06:33:42.803Z,16.37
2022-11-01T06:35:47.051Z,16.37
2022-11-01T06:37:42.941Z,16.37
2022-11-01T06:39:42.590Z,16.37
2022-11-01T06:41:43.259Z,16.37
2022-11-01T06:43:43.511Z,16.37
2022-11-01T06:45:43.320Z,16.37
2022-11-01T06:47:43.657Z,16.37
2022-11-01T06:49:51.788Z,16.37
2022-11-01T06:51:43.205Z,16.37
2022-11-01T06:53:43.178Z,16.37
2022-11-01T06:55:43.400Z,16.37
2022-11-01T06:57:42.716Z,16.37
2022-11-01T06:59:43.785Z,16.37
2022-11-01T07:01:46.874Z,16.37
2022-11-01T07:03:49.125Z,16.37
2022-11-01T07:05:48.620Z,16.37
2022-11-01T07:07:42.707Z,16.37
2022-11-01T07:09:43.815Z,16.37
2022-11-01T07:11:43.279Z,16.37
2022-11-01T07:13:43.162Z,16.37
2022-11-01T07:15:42.918Z,16.37
2022-11-01T07:17:43.340Z,16.37
2022-11-01T07:19:43.503Z,16.37
2022-11-01T07:21:43.586Z,16.37
2022-11-01T07:23:43.002Z,16.37
2022-11-01T07:25:42.706Z,16.37
2022-11-01T07:27:43.435Z,16.37
2022-11-01T07:29:42.772Z,16.37
2022-11-01T07:31:42.912Z,16.37
2022-11-01T07:33:48.021Z,16.37
2022-11-01T07:35:42.644Z,16.37
2022-11-01T07:37:43.898Z,16.37
2022-11-01T07:39:49.258Z,16.37
2022-11-01T07:41:43.387Z,16.37
2022-11-01T07:43:43.577Z,16.37
2022-11-01T07:45:47.079Z,16.37
2022-11-01T07:47:43.078Z,16.37
2022-11-01T07:49:43.913Z,16.37
2022-11-01T07:51:42.862Z,16.37
2022-11-01T07:53:44.336Z,16.37
2022-11-01T07:55:43.496Z,16.37
2022-11-01T07:57:42.865Z,16.37
2022-11-01T07:59:43.404Z,16.37
2022-11-01T08:01:47.474Z,16.37
2022-11-01T08:03:50.117Z,16.37
2022-11-01T08:05:42.932Z,16.37
2022-11-01T08:07:48.308Z,16.37
2022-11-01T08:09:44.037Z,16.37
2022-11-01T08:11:42.857Z,16.37
2022-11-01T08:13:43.256Z,16.37
2022-11-01T08:15:47.399Z,16.37
2022-11-01T08:17:42.896Z,16.37
2022-11-01T08:19:43.950Z,16.37
2022-11-01T08:21:43.166Z,16.37
2022-11-01T08:23:42.593Z,16.37
2022-11-01T08:25:42.935Z,16.37
2022-11-01T08:27:46.675Z,16.37
2022-11-01T08:29:43.500Z,16.37
2022-11-01T08:31:43.429Z,16.37
2022-11-01T08:33:43.097Z,16.37
2022-11-01T08:35:50.412Z,16.37
2022-11-01T08:37:42.904Z,16.37
2022-11-01T08:39:43.152Z,16.37
2022-11-01T08:41:48.713Z,16.37
2022-11-01T08:43:44.841Z,16.37
2022-11-01T08:45:42.776Z,16.37
2022-11-01T08:47:43.510Z,16.37
2022-11-01T08:49:42.635Z,16.37
2022-11-01T08:51:43.611Z,16.37
2022-11-01T08:53:43.051Z,16.37
2022-11-01T08:57:43.266Z,16.37
2022-11-01T08:59:43.037Z,16.37
2022-11-01T09:01:46.398Z,16.37
2022-11-01T09:03:44.254Z,16.37
2022-11-01T09:05:43.078Z,16.37
2022-11-01T09:07:44.280Z,16.37
2022-11-01T09:09:44.018Z,16.37
2022-11-01T09:11:43.017Z,16.37
2022-11-01T09:13:46.166Z,16.37
2022-11-01T09:15:43.270Z,16.37
2022-11-01T09:17:44.240Z,16.37
2022-11-01T09:19:42.879Z,16.37
2022-11-01T09:21:43.528Z,16.37
2022-11-01T09:23:42.588Z,16.37
2022-11-01T09:25:43.160Z,16.37
2022-11-01T09:27:43.364Z,16.37
2022-11-01T09:29:45.401Z,16.37
2022-11-01T09:32:16.672Z,16.37
2022-11-01T09:33:42.709Z,16.37
2022-11-01T09:35:47.662Z,86.03
2022-11-01T09:37:42.933Z,86.03
2022-11-01T09:39:42.574Z,86.03
2022-11-01T09:41:43.457Z,4568.86
2022-11-01T09:43:46.980Z,4568.86
2022-11-01T09:45:43.061Z,4568.86
2022-11-01T09:47:47.698Z,4.39
2022-11-01T09:49:43.329Z,4.39
2022-11-01T09:51:42.798Z,4.39
2022-11-01T09:53:42.994Z,2.25
2022-11-01T09:55:43.451Z,2.25
2022-11-01T09:57:43.022Z,2.25
2022-11-01T09:59:43.665Z,1.53
2022-11-01T10:01:46.788Z,1.53
2022-11-01T10:03:50.394Z,456.74
2022-11-01T10:05:45.730Z,1.22
2022-11-01T10:07:43.460Z,1.22
2022-11-01T10:09:43.430Z,1.22
2022-11-01T10:11:44.700Z,385.82
2022-11-01T10:13:43.362Z,385.82
2022-11-01T10:15:43.249Z,385.82
2022-11-01T10:17:45.995Z,356.22
2022-11-01T10:19:42.842Z,356.22
2022-11-01T10:21:48.351Z,0.87
2022-11-01T10:23:43.483Z,0.86
2022-11-01T10:25:42.787Z,0.86
2022-11-01T10:27:48.643Z,296.56
2022-11-01T10:29:43.064Z,0.8
2022-11-01T10:31:42.725Z,0.8
2022-11-01T10:33:43.144Z,0.8
2022-11-01T10:35:44.062Z,243.95
2022-11-01T10:37:51.952Z,243.95
2022-11-01T10:41:50.645Z,0.59
2022-11-01T10:43:43.273Z,0.59
2022-11-01T10:45:47.440Z,0.59
2022-11-01T10:47:42.504Z,0.51
2022-11-01T10:50:16.432Z,0.51
2022-11-01T10:51:50.681Z,0.56
2022-11-01T10:53:42.684Z,0.53
2022-11-01T10:55:43.475Z,0.53
2022-11-01T10:57:43.225Z,0.53
2022-11-01T10:59:43.246Z,239.5
2022-11-01T11:01:47.780Z,239.5
2022-11-01T11:03:43.497Z,239.5
2022-11-01T11:05:43.210Z,0.68
2022-11-01T11:07:46.578Z,0.68
2022-11-01T11:09:43.704Z,0.68
2022-11-01T11:11:43.780Z,0.65
2022-11-01T11:13:42.753Z,0.65
2022-11-01T11:15:46.899Z,0.67
2022-11-01T11:17:42.979Z,248.45
2022-11-01T11:19:43.083Z,248.45
2022-11-01T11:21:50.379Z,253.01
2022-11-01T11:23:42.756Z,0.66
2022-11-01T11:25:42.782Z,0.66
2022-11-01T11:27:50.928Z,0.59
2022-11-01T11:29:43.459Z,213.89
2022-11-01T11:31:43.543Z,213.89
2022-11-01T11:33:42.579Z,213.89
2022-11-01T11:35:42.639Z,0.58
2022-11-01T11:37:42.924Z,0.58
2022-11-01T11:39:43.915Z,0.58
2022-11-01T11:41:43.328Z,0.57
2022-11-01T11:43:43.712Z,0.57
2022-11-01T11:45:49.938Z,201.79
2022-11-01T11:47:43.130Z,197.85
2022-11-01T11:49:43.875Z,197.85
2022-11-01T11:51:43.068Z,197.85
2022-11-01T11:53:47.574Z,0.55
2022-11-01T11:55:43.563Z,0.55
2022-11-01T11:57:43.279Z,0.55
2022-11-01T11:59:43.878Z,193.97
2022-11-01T12:01:46.343Z,193.97
2022-11-01T12:03:47.498Z,190.14
2022-11-01T12:05:42.840Z,190.14
2022-11-01T12:07:42.868Z,190.14
2022-11-01T12:09:45.550Z,190.14
2022-11-01T12:11:43.546Z,186.35
2022-11-01T12:13:43.509Z,186.35
2022-11-01T12:15:51.464Z,0.5
2022-11-01T12:17:43.331Z,0.5
2022-11-01T12:19:46.369Z,0.5
2022-11-01T12:21:43.603Z,0.5
2022-11-01T12:23:43.225Z,193.97
2022-11-01T12:25:43.322Z,193.97
2022-11-01T12:27:46.569Z,193.97
2022-11-01T12:29:43.460Z,190.14
2022-11-01T12:31:43.201Z,190.14
2022-11-01T12:33:42.898Z,190.14
2022-11-01T12:35:48.822Z,193.97
2022-11-01T12:37:42.516Z,193.97
2022-11-01T12:39:43.323Z,193.97
2022-11-01T12:41:44.587Z,0.5
2022-11-01T12:43:42.588Z,0.5
2022-11-01T12:45:42.826Z,0.5
2022-11-01T12:47:42.944Z,186.35
2022-11-01T12:49:44.117Z,186.35
2022-11-01T12:51:43.111Z,186.35
2022-11-01T12:53:43.211Z,193.97
2022-11-01T12:55:43.781Z,193.97
2022-11-01T12:57:43.119Z,193.97
2022-11-01T12:59:49.559Z,0.5
2022-11-01T13:01:46.757Z,0.5
2022-11-01T13:03:43.604Z,0.5
2022-11-01T13:05:50.088Z,186.35
2022-11-01T13:07:43.037Z,186.35
2022-11-01T13:09:43.240Z,186.35
2022-11-01T13:11:43.257Z,0.5
2022-11-01T13:13:42.759Z,0.5
2022-11-01T13:15:48.107Z,0.5
2022-11-01T13:17:42.671Z,186.35
2022-11-01T13:19:43.306Z,186.35
2022-11-01T13:21:42.713Z,186.35
2022-11-01T13:23:42.924Z,0.49
2022-11-01T13:25:43.260Z,0.49
2022-11-01T13:27:43.153Z,0.49
2022-11-01T13:29:44.634Z,178.92
2022-11-01T13:31:43.386Z,178.92
2022-11-01T13:33:43.258Z,178.92
2022-11-01T13:35:42.842Z,0.46
2022-11-01T13:37:49.886Z,0.46
2022-11-01T13:39:43.597Z,0.46
2022-11-01T13:41:42.602Z,0.45
2022-11-01T13:43:43.240Z,0.45
2022-11-01T13:45:43.256Z,0.45
2022-11-01T13:47:42.635Z,171.69
2022-11-01T13:49:43.463Z,171.69
2022-11-01T13:51:43.018Z,171.69
2022-11-01T13:53:43.547Z,0.45
2022-11-01T13:55:43.386Z,0.45
2022-11-01T13:57:44.973Z,0.45
2022-11-01T13:59:43.306Z,168.15
2022-11-01T14:01:46.395Z,168.15
2022-11-01T14:03:49.598Z,168.15
2022-11-01T14:05:42.584Z,0.45
2022-11-01T14:07:49.199Z,0.45
2022-11-01T14:09:43.205Z,0.45
2022-11-01T14:11:43.114Z,0.44
2022-11-01T14:13:45.597Z,0.44
2022-11-01T14:15:42.869Z,0.44
2022-11-01T14:17:43.494Z,0.47
2022-11-01T14:19:44.116Z,0.47
2022-11-01T14:21:43.119Z,0.47
2022-11-01T14:23:43.559Z,186.35
2022-11-01T14:25:44.423Z,186.35
2022-11-01T14:27:48.884Z,186.35
2022-11-01T14:29:44.621Z,0.51
2022-11-01T14:31:42.872Z,0.51
2022-11-01T14:33:42.440Z,0.51
2022-11-01T14:35:42.435Z,182.61
2022-11-01T14:37:42.560Z,182.61
2022-11-01T14:39:43.302Z,182.61
2022-11-01T14:41:43.175Z,0.49
2022-11-01T14:43:42.543Z,0.49
2022-11-01T14:45:47.032Z,0.49
2022-11-01T14:47:49.305Z,164.65
2022-11-01T14:49:43.482Z,164.65
2022-11-01T14:51:43.270Z,164.65
2022-11-01T14:53:43.620Z,0.43
2022-11-01T14:55:43.760Z,0.43
2022-11-01T14:57:48.635Z,0.43
2022-11-01T14:59:43.684Z,0.43
2022-11-01T15:01:45.222Z,0.43
2022-11-01T15:03:45.713Z,0.43
2022-11-01T15:05:43.330Z,0.45
2022-11-01T15:07:42.957Z,0.45
2022-11-01T15:09:43.769Z,0.45
2022-11-01T15:11:43.483Z,0.47
2022-11-01T15:13:44.423Z,0.47
2022-11-01T15:15:43.255Z,0.47
2022-11-01T15:17:43.315Z,0.47
2022-11-01T15:19:43.961Z,0.47
2022-11-01T15:21:48.223Z,0.47
2022-11-01T15:23:43.560Z,0.45
2022-11-01T15:25:42.576Z,0.45
2022-11-01T15:27:42.919Z,0.45
2022-11-01T15:29:42.999Z,117.59
2022-11-01T15:31:47.559Z,117.59
2022-11-01T15:33:42.786Z,117.59
2022-11-01T15:35:43.087Z,0.3
2022-11-01T15:37:43.506Z,0.3
2022-11-01T15:39:49.769Z,0.3
2022-11-01T15:41:43.754Z,91.52
2022-11-01T15:43:43.406Z,91.52
2022-11-01T15:45:43.002Z,91.52
2022-11-01T15:47:42.985Z,89.13
2022-11-01T15:49:43.503Z,89.13
2022-11-01T15:51:43.208Z,89.13
2022-11-01T15:53:43.665Z,106.67
2022-11-01T15:55:50.442Z,106.67
2022-11-01T15:57:43.471Z,106.67
2022-11-01T15:59:42.709Z,96.41
2022-11-01T16:01:47.826Z,96.41
2022-11-01T16:03:44.120Z,96.41
2022-11-01T16:05:43.001Z,96.41
2022-11-01T16:07:43.509Z,96.41
2022-11-01T16:09:43.044Z,96.41
2022-11-01T16:11:43.219Z,91.52
2022-11-01T16:13:42.835Z,91.52
2022-11-01T16:15:45.595Z,91.52
2022-11-01T16:17:43.597Z,89.13
2022-11-01T16:19:43.876Z,89.13
2022-11-01T16:21:44.488Z,89.13
2022-11-01T16:23:43.051Z,89.13
2022-11-01T16:25:50.544Z,89.13
2022-11-01T16:27:42.576Z,89.13
2022-11-01T16:29:43.288Z,0.25
2022-11-01T16:31:43.181Z,0.25
2022-11-01T16:33:49.724Z,0.25
2022-11-01T16:35:42.602Z,0.23
2022-11-01T16:37:43.438Z,0.23
2022-11-01T16:39:43.583Z,0.23
2022-11-01T16:41:46.346Z,0.22
2022-11-01T16:43:43.206Z,0.22
2022-11-01T16:45:43.364Z,0.22
2022-11-01T16:47:43.048Z,75.6
2022-11-01T16:49:43.369Z,75.6
2022-11-01T16:51:43.469Z,75.6
2022-11-01T16:53:42.868Z,75.6
2022-11-01T16:55:48.739Z,75.6
2022-11-01T16:58:12.445Z,71.38
2022-11-01T16:59:43.858Z,0.2
2022-11-01T17:01:48.001Z,0.2
2022-11-01T17:03:44.072Z,0.2
2022-11-01T17:05:43.096Z,0.2
2022-11-01T17:07:46.891Z,0.2
2022-11-01T17:09:43.821Z,0.2
2022-11-01T17:11:49.531Z,0.2
2022-11-01T17:13:43.074Z,0.2
2022-11-01T17:15:43.034Z,0.2
2022-11-01T17:17:42.945Z,71.38
2022-11-01T17:19:46.804Z,71.38
2022-11-01T17:21:43.180Z,71.38
2022-11-01T17:23:43.214Z,0.18
2022-11-01T17:25:43.008Z,0.18
2022-11-01T17:27:42.980Z,0.18
2022-11-01T17:29:48.695Z,0.19
2022-11-01T17:31:43.399Z,0.19
2022-11-01T17:33:43.174Z,0.19
2022-11-01T17:35:49.253Z,0.18
2022-11-01T17:37:43.045Z,0.18
2022-11-01T17:39:49.214Z,0.18
2022-11-01T17:41:42.893Z,65.34
2022-11-01T17:43:42.744Z,65.34
2022-11-01T17:45:42.894Z,65.34
2022-11-01T17:47:42.726Z,0.16
2022-11-01T17:49:43.731Z,0.16
2022-11-01T17:51:42.628Z,0.16
2022-11-01T17:53:43.177Z,61.48
2022-11-01T17:55:42.873Z,61.48
2022-11-01T17:57:43.191Z,61.48
2022-11-01T17:59:48.565Z,57.77
2022-11-01T18:01:48.893Z,57.77
2022-11-01T18:03:44.473Z,57.77
2022-11-01T18:05:44.519Z,54.2
2022-11-01T18:07:43.617Z,54.2
2022-11-01T18:09:43.788Z,54.2
2022-11-01T18:11:43.201Z,0.15
2022-11-01T18:13:43.326Z,0.15
2022-11-01T18:15:46.272Z,0.15
2022-11-01T18:17:46.749Z,55.97
2022-11-01T18:19:45.399Z,55.97
2022-11-01T18:21:43.921Z,55.97
2022-11-01T18:23:43.102Z,0.15
2022-11-01T18:25:48.618Z,0.15
2022-11-01T18:27:43.099Z,0.15
2022-11-01T18:29:50.340Z,0.15
2022-11-01T18:31:42.949Z,0.15
2022-11-01T18:33:42.811Z,0.15
2022-11-01T18:35:43.915Z,50.76
2022-11-01T18:37:43.317Z,50.76
2022-11-01T18:39:45.164Z,50.76
2022-11-01T18:41:47.132Z,55.97
2022-11-01T18:43:43.490Z,55.97
2022-11-01T18:46:25.708Z,61.48
2022-11-01T18:48:07.357Z,0.17
2022-11-01T18:49:43.952Z,0.17
2022-11-01T18:51:50.364Z,0.17
2022-11-01T18:53:42.737Z,0.18
2022-11-01T18:55:47.494Z,0.18
2022-11-01T18:57:44.595Z,0.18
2022-11-01T18:59:43.930Z,0.2
2022-11-01T19:01:46.074Z,0.2
2022-11-01T19:03:46.936Z,0.2
2022-11-01T19:05:42.998Z,75.6
2022-11-01T19:08:20.668Z,75.6
2022-11-01T19:09:53.284Z,75.6
2022-11-01T19:11:42.935Z,0.19
2022-11-01T19:13:47.180Z,0.19
2022-11-01T19:15:42.681Z,0.19
2022-11-01T19:17:43.467Z,77.76
2022-11-01T19:19:49.767Z,77.76
2022-11-01T19:21:43.457Z,77.76
2022-11-01T19:23:42.648Z,79.96
2022-11-01T19:25:44.609Z,79.96
2022-11-01T19:27:42.556Z,79.96
2022-11-01T19:29:48.390Z,82.19
2022-11-01T19:31:43.383Z,82.19
2022-11-01T19:33:42.868Z,82.19
2022-11-01T19:35:44.871Z,79.96
2022-11-01T19:37:47.920Z,79.96
2022-11-01T19:39:43.869Z,79.96
2022-11-01T19:41:46.932Z,0.23
2022-11-01T19:43:42.785Z,0.23
2022-11-01T19:45:42.599Z,0.23
2022-11-01T19:47:49.670Z,0.24
2022-11-01T19:49:43.095Z,0.24
2022-11-01T19:51:43.118Z,0.24
2022-11-01T19:53:44.061Z,89.13
2022-11-01T19:55:43.045Z,89.13
2022-11-01T19:57:45.013Z,89.13
2022-11-01T19:59:48.399Z,0.25
2022-11-01T20:01:49.503Z,0.25
2022-11-01T20:03:48.815Z,0.25
2022-11-01T20:05:46.931Z,104.05
2022-11-01T20:07:43.350Z,104.05
2022-11-01T20:09:43.366Z,104.05
2022-11-01T20:11:42.673Z,138.31
2022-11-01T20:13:42.784Z,138.31
2022-11-01T20:15:42.612Z,138.31
2022-11-01T20:19:51.347Z,0.38
2022-11-01T20:21:43.382Z,0.38
2022-11-01T20:24:11.570Z,0.42
2022-11-01T20:25:43.006Z,0.42
2022-11-01T20:27:42.832Z,0.42
2022-11-01T20:29:43.571Z,154.43
2022-11-01T20:31:42.878Z,154.43
2022-11-01T20:33:42.802Z,154.43
2022-11-01T20:35:43.020Z,0.45
2022-11-01T20:39:49.297Z,0.45
2022-11-01T20:41:43.356Z,168.15
2022-11-01T20:43:43.065Z,168.15
2022-11-01T20:45:43.021Z,168.15
2022-11-01T20:47:46.107Z,0.43
2022-11-01T20:49:43.173Z,0.43
2022-11-01T20:51:43.096Z,0.43
2022-11-01T20:54:29.418Z,0.45
2022-11-01T20:55:48.016Z,0.45
2022-11-01T20:57:58.744Z,147.85
2022-11-01T20:59:44.172Z,144.62
2022-11-01T21:01:46.810Z,144.62
2022-11-01T21:03:42.984Z,144.62
2022-11-01T21:05:43.166Z,0.41
2022-11-01T21:07:46.777Z,0.41
2022-11-01T21:09:42.910Z,0.41
2022-11-01T21:11:43.551Z,0.35
2022-11-01T21:13:44.426Z,0.35
2022-11-01T21:15:42.848Z,0.35
2022-11-01T21:17:43.312Z,0.34
2022-11-01T21:19:43.211Z,0.34
2022-11-01T21:21:46.792Z,0.34
2022-11-01T21:23:42.979Z,112.05
2022-11-01T21:25:42.760Z,112.05
2022-11-01T21:27:49.772Z,112.05
2022-11-01T21:29:43.763Z,0.3
2022-11-01T21:31:43.114Z,0.3
2022-11-01T21:33:42.662Z,0.3
2022-11-01T21:35:43.003Z,0.33
2022-11-01T21:37:42.664Z,0.33
2022-11-01T21:39:43.385Z,0.33
2022-11-01T21:41:47.173Z,117.59
2022-11-01T21:43:43.097Z,117.59
2022-11-01T21:45:43.308Z,117.59
2022-11-01T21:47:45.784Z,114.8
2022-11-01T21:49:43.731Z,114.8
2022-11-01T21:51:43.052Z,114.8
2022-11-01T21:53:42.817Z,0.32
2022-11-01T21:55:46.021Z,0.32
2022-11-01T21:57:42.793Z,0.32
2022-11-01T21:59:43.451Z,0.31
2022-11-01T22:01:46.718Z,0.31
2022-11-01T22:03:44.167Z,0.31
2022-11-01T22:05:47.665Z,0.31
2022-11-01T22:07:43.283Z,106.67
2022-11-01T22:09:43.147Z,106.67
2022-11-01T22:11:46.352Z,89.13
2022-11-01T22:13:49.328Z,89.13
2022-11-01T22:15:42.801Z,89.13
2022-11-01T22:17:43.187Z,91.52
2022-11-01T22:19:44.317Z,91.52
2022-11-01T22:21:42.935Z,91.52
2022-11-01T22:23:43.138Z,98.92
2022-11-01T22:25:42.724Z,98.92
2022-11-01T22:27:43.435Z,98.92
2022-11-01T22:29:42.690Z,0.28
2022-11-01T22:31:43.089Z,0.28
2022-11-01T22:33:44.933Z,0.28
2022-11-01T22:35:42.907Z,104.05
2022-11-01T22:37:43.117Z,104.05
2022-11-01T22:39:43.422Z,104.05
2022-11-01T22:41:45.278Z,0.32
2022-11-01T22:43:43.522Z,0.32
2022-11-01T22:45:42.960Z,0.32
2022-11-01T22:47:44.214Z,126.21
2022-11-01T22:49:43.049Z,126.21
2022-11-01T22:51:42.801Z,126.21
2022-11-01T22:53:42.682Z,0.32
2022-11-01T22:55:43.337Z,0.32
2022-11-01T22:57:43.245Z,0.32
2022-11-01T22:59:44.862Z,109.34
2022-11-01T23:01:54.755Z,109.34
2022-11-01T23:03:44.763Z,109.34
2022-11-01T23:05:43.322Z,0.33
2022-11-01T23:07:42.915Z,0.33
2022-11-01T23:09:46.138Z,0.33
2022-11-01T23:11:43.421Z,0.32
2022-11-01T23:13:42.735Z,0.32
2022-11-01T23:15:42.973Z,0.32
2022-11-01T23:17:43.241Z,135.22
2022-11-01T23:19:42.760Z,135.22
2022-11-01T23:21:42.638Z,135.22
2022-11-01T23:23:42.512Z,0.34
2022-11-01T23:25:43.379Z,0.34
2022-11-01T23:27:43.020Z,0.34
2022-11-01T23:29:43.310Z,144.62
2022-11-01T23:31:43.057Z,144.62
2022-11-01T23:33:42.821Z,144.62
2022-11-01T23:35:42.982Z,0.38
2022-11-01T23:37:43.088Z,0.38
2022-11-01T23:39:44.414Z,0.38
2022-11-01T23:41:43.461Z,0.38
2022-11-01T23:43:42.943Z,0.38
2022-11-01T23:45:42.850Z,0.38
2022-11-01T23:47:42.588Z,0.45
2022-11-01T23:49:47.679Z,0.45
2022-11-01T23:51:43.320Z,0.45
2022-11-01T23:53:42.502Z,0.39
2022-11-01T23:55:43.420Z,0.39
2022-11-01T23:57:43.280Z,0.39
2022-11-01T23:59:42.755Z,0.37
